createdAt,value
2023-02-19T00:03:39.186Z,3.77
2023-02-19T00:08:41.901Z,3.80
2023-02-19T00:13:46.637Z,3.07
2023-02-19T00:18:49.572Z,3.47
2023-02-19T00:23:54.092Z,3.43
2023-02-19T00:28:57.958Z,3.77
2023-02-19T00:34:05.744Z,2.60
2023-02-19T00:39:09.072Z,2.80
2023-02-19T00:44:13.226Z,3.10
2023-02-19T00:49:19.625Z,2.60
2023-02-19T00:54:23.124Z,3.00
2023-02-19T00:59:25.725Z,3.27
2023-02-19T01:04:28.521Z,3.00
2023-02-19T01:09:31.516Z,2.90
2023-02-19T01:14:34.015Z,2.87
2023-02-19T01:19:36.451Z,3.50
2023-02-19T01:24:38.998Z,3.00
2023-02-19T01:29:42.762Z,3.77
2023-02-19T01:34:45.303Z,4.17
2023-02-19T01:39:48.138Z,4.17
2023-02-19T01:45:24.695Z,3.33
2023-02-19T01:50:32.825Z,3.40
2023-02-19T01:55:36.370Z,3.00
2023-02-19T02:00:38.912Z,4.33
2023-02-19T02:05:47.781Z,3.93
2023-02-19T02:10:50.965Z,2.90
2023-02-19T02:16:30.530Z,3.50
2023-02-19T02:22:06.039Z,3.77
2023-02-19T02:27:40.941Z,2.30
2023-02-19T02:32:57.842Z,3.30
2023-02-19T02:38:05.402Z,3.30
2023-02-19T02:43:08.194Z,3.53
2023-02-19T02:48:35.170Z,2.80
2023-02-19T02:54:05.536Z,1.80
2023-02-19T02:59:11.148Z,3.90
2023-02-19T03:05:11.363Z,2.80
2023-02-19T03:10:22.271Z,5.17
2023-02-19T03:15:48.166Z,4.97
2023-02-19T03:20:55.000Z,5.17
2023-02-19T03:26:03.794Z,4.30
2023-02-19T03:31:30.064Z,3.90
2023-02-19T03:37:27.361Z,4.57
2023-02-19T03:42:57.412Z,4.73
2023-02-19T03:48:18.326Z,4.43
2023-02-19T03:53:34.002Z,3.77
2023-02-19T03:59:01.798Z,4.77
2023-02-19T04:04:19.009Z,6.40
2023-02-19T04:09:23.373Z,5.63
2023-02-19T04:15:00.855Z,5.23
2023-02-19T04:20:08.021Z,3.70
2023-02-19T04:25:11.870Z,1.93
2023-02-19T04:30:15.349Z,4.33
2023-02-19T04:35:17.900Z,3.40
2023-02-19T04:40:20.443Z,5.27
2023-02-19T04:45:22.945Z,3.67
2023-02-19T04:50:25.735Z,3.47
2023-02-19T04:55:28.204Z,4.77
2023-02-19T05:00:31.246Z,4.80
2023-02-19T05:05:34.821Z,4.87
2023-02-19T05:10:37.365Z,6.80
2023-02-19T05:15:40.114Z,7.03
2023-02-19T05:20:42.693Z,5.80
2023-02-19T05:25:45.505Z,7.77
2023-02-19T05:30:51.409Z,3.77
2023-02-19T05:35:55.624Z,5.23
2023-02-19T05:41:11.987Z,6.30
2023-02-19T05:46:17.034Z,5.77
2023-02-19T05:51:22.291Z,4.30
2023-02-19T05:56:30.640Z,3.23
2023-02-19T06:01:33.761Z,3.50
2023-02-19T06:06:37.234Z,4.43
2023-02-19T06:11:40.528Z,4.20
2023-02-19T06:16:43.166Z,4.03
2023-02-19T06:21:46.671Z,4.63
2023-02-19T06:26:49.201Z,5.43
2023-02-19T06:31:51.863Z,5.07
2023-02-19T06:36:54.519Z,4.10
2023-02-19T06:41:58.452Z,5.77
2023-02-19T06:47:01.138Z,4.37
2023-02-19T06:52:03.713Z,5.17
2023-02-19T06:57:06.269Z,5.83
2023-02-19T07:02:11.711Z,5.43
2023-02-19T07:07:14.222Z,5.30
2023-02-19T07:12:16.768Z,5.07
2023-02-19T07:17:19.361Z,4.10
2023-02-19T07:22:21.908Z,4.40
2023-02-19T07:27:24.449Z,3.83
2023-02-19T07:32:26.996Z,3.10
2023-02-19T07:37:29.455Z,5.73
2023-02-19T07:42:32.228Z,4.70
2023-02-19T07:47:35.714Z,3.57
2023-02-19T07:52:41.307Z,6.23
2023-02-19T07:57:43.909Z,2.57
2023-02-19T08:03:03.122Z,4.13
2023-02-19T08:08:11.738Z,4.87
2023-02-19T08:13:19.670Z,4.73
2023-02-19T08:18:26.824Z,6.60
2023-02-19T08:23:32.204Z,4.67
2023-02-19T08:28:34.802Z,4.03
2023-02-19T08:33:38.107Z,3.87
2023-02-19T08:38:40.578Z,4.97
2023-02-19T08:43:43.713Z,4.60
2023-02-19T08:48:46.336Z,4.50
2023-02-19T08:53:48.810Z,4.33
2023-02-19T08:58:51.370Z,5.27
2023-02-19T09:03:54.190Z,2.30
2023-02-19T09:08:56.809Z,3.93
2023-02-19T09:13:59.432Z,2.60
2023-02-19T09:19:02.133Z,2.90
2023-02-19T09:24:04.849Z,4.20
2023-02-19T09:29:07.230Z,5.43
2023-02-19T09:34:09.833Z,5.97
2023-02-19T09:39:12.897Z,4.83
2023-02-19T09:44:35.830Z,5.13
2023-02-19T09:49:41.415Z,5.33
2023-02-19T09:54:46.082Z,4.23
2023-02-19T09:59:52.286Z,3.97
2023-02-19T10:04:54.969Z,3.13
2023-02-19T10:10:18.782Z,3.57
2023-02-19T10:15:27.853Z,3.23
2023-02-19T10:20:30.386Z,5.13
2023-02-19T10:25:34.405Z,4.40
2023-02-19T10:30:37.504Z,6.83
2023-02-19T10:35:56.788Z,3.93
2023-02-19T10:41:01.242Z,5.53
2023-02-19T10:46:14.498Z,4.50
2023-02-19T10:51:21.723Z,3.20
2023-02-19T10:56:27.150Z,2.97
2023-02-19T11:01:29.947Z,3.70
2023-02-19T11:06:34.907Z,3.87
2023-02-19T11:11:40.122Z,2.47
2023-02-19T11:16:51.978Z,2.47
2023-02-19T11:21:55.757Z,2.00
2023-02-19T11:26:59.580Z,2.00
2023-02-19T11:32:25.226Z,1.00
2023-02-19T11:37:27.981Z,1.40
2023-02-19T11:42:36.647Z,1.30
2023-02-19T11:48:03.881Z,2.00
2023-02-19T11:53:28.972Z,4.80
2023-02-19T11:59:02.533Z,1.73
2023-02-19T12:04:26.621Z,1.03
2023-02-19T12:10:00.706Z,1.90
2023-02-19T12:15:27.309Z,1.30
2023-02-19T12:20:57.436Z,1.67
2023-02-19T12:26:20.816Z,2.47
2023-02-19T12:32:09.947Z,1.40
2023-02-19T12:37:21.134Z,3.53
2023-02-19T12:42:35.370Z,1.40
2023-02-19T12:47:42.194Z,2.47
2023-02-19T12:52:48.504Z,1.00
2023-02-19T12:57:52.975Z,1.40
2023-02-19T13:03:30.310Z,1.40
2023-02-19T13:08:57.842Z,1.13
2023-02-19T13:14:17.465Z,1.00
2023-02-19T13:19:19.984Z,1.40
2023-02-19T13:24:30.103Z,1.33
2023-02-19T13:30:04.860Z,2.07
2023-02-19T13:35:28.846Z,1.13
2023-02-19T13:40:33.054Z,1.17
2023-02-19T13:45:43.931Z,1.80
2023-02-19T13:50:46.461Z,1.07
2023-02-19T13:55:52.657Z,1.00
2023-02-19T14:00:55.376Z,0.87
2023-02-19T14:05:59.658Z,1.63
2023-02-19T14:11:02.859Z,0.67
2023-02-19T14:16:25.920Z,1.00
2023-02-19T14:21:37.145Z,1.87
2023-02-19T14:26:40.920Z,0.60
2023-02-19T14:31:46.157Z,2.43
2023-02-19T14:36:55.301Z,2.60
2023-02-19T14:42:00.921Z,2.40
2023-02-19T14:47:06.736Z,1.83
2023-02-19T14:52:28.557Z,1.57
2023-02-19T14:57:35.907Z,2.53
2023-02-19T15:02:43.166Z,2.00
2023-02-19T15:07:46.093Z,1.50
2023-02-19T15:12:52.995Z,2.60
2023-02-19T15:17:57.954Z,2.67
2023-02-19T15:23:01.707Z,2.03
2023-02-19T15:28:26.185Z,2.07
2023-02-19T15:33:28.807Z,1.80
2023-02-19T15:38:33.129Z,1.80
2023-02-19T15:44:04.169Z,2.20
2023-02-19T15:49:15.011Z,2.83
2023-02-19T15:54:37.374Z,2.30
2023-02-19T15:59:46.321Z,2.77
2023-02-19T16:04:48.956Z,3.17
2023-02-19T16:10:08.011Z,2.07
2023-02-19T16:15:14.993Z,2.70
2023-02-19T16:20:22.033Z,4.33
2023-02-19T16:25:35.960Z,2.53
2023-02-19T16:30:38.735Z,3.13
2023-02-19T16:35:41.381Z,6.10
2023-02-19T16:40:46.992Z,4.70
2023-02-19T16:45:50.380Z,4.27
2023-02-19T16:50:52.933Z,3.07
2023-02-19T16:55:55.893Z,4.27
2023-02-19T17:00:58.435Z,3.33
2023-02-19T17:06:01.088Z,4.23
2023-02-19T17:11:06.675Z,5.40
2023-02-19T17:16:16.926Z,6.07
2023-02-19T17:21:29.900Z,4.30
2023-02-19T17:26:36.040Z,4.23
2023-02-19T17:31:38.484Z,4.97
2023-02-19T17:36:43.196Z,6.70
2023-02-19T17:41:45.717Z,3.63
2023-02-19T17:46:48.751Z,3.67
2023-02-19T17:51:51.211Z,4.33
2023-02-19T17:56:53.765Z,3.60
2023-02-19T18:01:56.312Z,3.80
2023-02-19T18:06:58.914Z,4.50
2023-02-19T18:12:02.423Z,6.72
2023-02-19T18:17:04.958Z,4.53
2023-02-19T18:22:07.591Z,6.03
2023-02-19T18:27:10.213Z,6.07
2023-02-19T18:32:12.860Z,7.30
2023-02-19T18:37:15.369Z,7.50
2023-02-19T18:42:18.166Z,7.37
2023-02-19T18:47:22.197Z,10.07
2023-02-19T18:52:26.177Z,13.50
2023-02-19T18:57:31.867Z,8.40
2023-02-19T19:02:48.306Z,11.50
2023-02-19T19:07:56.538Z,10.23
2023-02-19T19:12:59.133Z,7.57
2023-02-19T19:18:02.804Z,8.20
2023-02-19T19:23:06.365Z,10.07
2023-02-19T19:28:09.149Z,10.50
2023-02-19T19:33:12.128Z,12.63
2023-02-19T19:38:16.610Z,9.93
2023-02-19T19:43:19.110Z,9.70
2023-02-19T19:48:21.816Z,9.10
2023-02-19T19:53:24.902Z,8.60
2023-02-19T19:58:27.350Z,11.23
2023-02-19T20:03:29.841Z,13.23
2023-02-19T20:08:32.396Z,5.20
2023-02-19T20:13:34.939Z,5.03
2023-02-19T20:18:37.362Z,5.17
2023-02-19T20:23:39.852Z,5.20
2023-02-19T20:28:46.424Z,5.43
2023-02-19T20:33:51.129Z,4.67
2023-02-19T20:38:53.945Z,4.53
2023-02-19T20:43:56.481Z,5.07
2023-02-19T20:48:59.039Z,4.73
2023-02-19T20:54:01.458Z,4.37
2023-02-19T20:59:03.891Z,4.13
2023-02-19T21:04:06.623Z,4.20
2023-02-19T21:09:09.148Z,4.30
2023-02-19T21:14:11.769Z,4.13
2023-02-19T21:19:14.283Z,5.57
2023-02-19T21:24:17.091Z,4.23
2023-02-19T21:29:21.142Z,3.97
2023-02-19T21:34:26.807Z,4.07
2023-02-19T21:39:31.344Z,4.23
2023-02-19T21:44:35.254Z,3.90
2023-02-19T21:49:37.918Z,3.50
2023-02-19T21:54:40.502Z,3.43
2023-02-19T21:59:43.030Z,2.13
2023-02-19T22:04:46.132Z,3.47
2023-02-19T22:09:50.031Z,4.63
2023-02-19T22:14:52.892Z,3.43
2023-02-19T22:19:55.481Z,3.30
2023-02-19T22:24:58.058Z,3.80
2023-02-19T22:30:00.705Z,2.47
2023-02-19T22:35:03.304Z,3.03
2023-02-19T22:40:06.473Z,2.63
2023-02-19T22:45:11.604Z,3.40
2023-02-19T22:50:19.571Z,3.33
2023-02-19T22:55:22.407Z,2.13
2023-02-19T23:00:24.899Z,2.77
2023-02-19T23:05:27.387Z,3.00
2023-02-19T23:10:30.027Z,2.93
2023-02-19T23:15:32.558Z,2.70
2023-02-19T23:20:35.561Z,2.90
2023-02-19T23:25:38.130Z,0.83
2023-02-19T23:30:40.800Z,2.40
2023-02-19T23:35:43.462Z,1.97
2023-02-19T23:40:45.997Z,1.53
2023-02-19T23:45:48.665Z,2.00
2023-02-19T23:50:51.199Z,2.30
2023-02-19T23:55:53.949Z,3.20
